Terminal Aerodrome Forecast
Issued by NWS Grand Rapids, MI

Home | Current Version | Previous Version | Text Only | Print | Product List | Glossary On
Versions: 1 2 3 4 5 6 7 8 9 10 11 12 13 14 15 16 17 18 19
707
FTUS43 KGRR 260613 AAA
TAFGRR
TAF AMD
KGRR 260613Z 2606/2706 09012KT 4SM -RA BR OVC006
     FM261100 10009KT 1SM -RA BR VCTS OVC005CB
     FM261400 12010KT 2SM -RA BR OVC005=

USA.gov is the U.S. government's official web portal to all federal, state and local government web resources and services.